Time;durP1;ratioP1;P1;durP2;ratioP2;P2;SDS_P1;SDS_P2;PMS_P1;PMS_P2;Temp;Humidity;BMP_temperature;BMP_pressure;BME280_temperature;BME280_humidity;BME280_pressure;Samples;Min_cycle;Max_cycle;Signal;HPM_P1;HPM_P2
2023/06/30 00:00:12;;;;;;;;;;;25.60;49.70;;;;;;5075797;28;20350;-58
2023/06/30 00:02:40;;;;;;;;;;;25.60;49.70;;;;;;5073440;28;19974;-58
2023/06/30 00:05:08;;;;;;;;;;;25.60;49.80;;;;;;5055841;28;20375;-58
2023/06/30 00:07:36;;;;;;;;;;;25.60;49.80;;;;;;5056086;28;19927;-58
2023/06/30 00:10:03;;;;;;;;;;;25.60;49.80;;;;;;5055489;28;19963;-58
2023/06/30 00:12:30;;;;;;;;;;;25.50;49.70;;;;;;5055625;28;19994;-58
2023/06/30 00:14:57;;;;;;;;;;;25.50;49.70;;;;;;5056308;28;19964;-58
2023/06/30 00:17:24;;;;;;;;;;;25.50;49.80;;;;;;5055571;28;19975;-58
2023/06/30 00:19:51;;;;;;;;;;;25.50;49.70;;;;;;5055063;28;20422;-58
2023/06/30 00:22:19;;;;;;;;;;;25.50;49.70;;;;;;5055135;28;19971;-57
2023/06/30 00:24:48;;;;;;;;;;;25.50;49.70;;;;;;5055061;28;19971;-58
2023/06/30 00:27:15;;;;;;;;;;;25.50;49.70;;;;;;5055698;28;19975;-58
2023/06/30 00:29:42;;;;;;;;;;;25.50;49.70;;;;;;5055312;28;19975;-58
2023/06/30 00:32:09;;;;;;;;;;;25.50;49.70;;;;;;5055294;28;19920;-58
2023/06/30 00:34:36;;;;;;;;;;;25.50;49.70;;;;;;5054792;28;19972;-57
2023/06/30 00:37:03;;;;;;;;;;;25.50;49.70;;;;;;5054851;28;19968;-58
2023/06/30 00:39:31;;;;;;;;;;;25.50;49.70;;;;;;5055012;28;20368;-58
2023/06/30 00:41:58;;;;;;;;;;;25.50;49.70;;;;;;5054360;28;19974;-58
2023/06/30 00:44:25;;;;;;;;;;;25.50;49.70;;;;;;5054846;28;20003;-58
2023/06/30 00:46:52;;;;;;;;;;;25.50;49.70;;;;;;5055168;28;19979;-58
2023/06/30 00:49:19;;;;;;;;;;;25.50;49.60;;;;;;5054970;28;19927;-58
2023/06/30 00:51:47;;;;;;;;;;;25.50;49.90;;;;;;5055328;28;19921;-58
2023/06/30 00:54:14;;;;;;;;;;;25.50;49.60;;;;;;5055140;28;19920;-58
2023/06/30 00:56:41;;;;;;;;;;;25.50;49.60;;;;;;5055236;28;20381;-58
2023/06/30 00:59:08;;;;;;;;;;;25.50;49.60;;;;;;5055204;28;19924;-58
2023/06/30 01:01:41;;;;;;;;;;;25.50;49.60;;;;;;5054775;28;19967;-58
2023/06/30 01:04:28;;;;;;;;;;;25.50;49.60;;;;;;5055119;28;19920;-58
2023/06/30 01:07:00;;;;;;;;;;;25.50;49.60;;;;;;5055066;28;19920;-58
2023/06/30 01:09:29;;;;;;;;;;;25.50;49.60;;;;;;5055204;28;19920;-58
2023/06/30 01:11:57;;;;;;;;;;;25.50;49.70;;;;;;5055047;28;19924;-58
2023/06/30 01:14:26;;;;;;;;;;;25.40;49.60;;;;;;5054811;28;20415;-58
2023/06/30 01:16:53;;;;;;;;;;;25.40;49.60;;;;;;5054454;28;20404;-58
2023/06/30 01:19:26;;;;;;;;;;;25.40;49.60;;;;;;5055174;28;19920;-58
2023/06/30 01:21:55;;;;;;;;;;;25.40;49.60;;;;;;5054274;28;19924;-58
2023/06/30 01:24:22;;;;;;;;;;;25.40;49.70;;;;;;5054978;28;19990;-58
2023/06/30 01:26:49;;;;;;;;;;;25.40;49.80;;;;;;5055084;28;19920;-58
2023/06/30 01:29:16;;;;;;;;;;;25.40;49.70;;;;;;5054792;28;19948;-59
2023/06/30 01:31:45;;;;;;;;;;;25.40;49.70;;;;;;5054395;28;20016;-58
2023/06/30 01:34:12;;;;;;;;;;;25.40;49.70;;;;;;5055000;28;19920;-58
2023/06/30 01:36:39;;;;;;;;;;;25.40;49.70;;;;;;5054125;28;20020;-58
2023/06/30 01:39:06;;;;;;;;;;;25.40;49.70;;;;;;5054472;28;19920;-58
2023/06/30 01:41:33;;;;;;;;;;;25.40;49.70;;;;;;5053967;28;19921;-58
2023/06/30 01:44:00;;;;;;;;;;;25.40;49.70;;;;;;5053121;28;19933;-58
2023/06/30 01:46:28;;;;;;;;;;;25.40;49.70;;;;;;5054547;28;19921;-58
2023/06/30 01:48:55;;;;;;;;;;;25.40;49.70;;;;;;5054353;28;19921;-58
2023/06/30 01:51:22;;;;;;;;;;;25.40;49.70;;;;;;5066237;28;19971;-58
2023/06/30 01:53:49;;;;;;;;;;;25.40;49.70;;;;;;5073221;28;20382;-58
2023/06/30 01:56:16;;;;;;;;;;;25.40;49.70;;;;;;5073808;28;20010;-58
2023/06/30 01:58:43;;;;;;;;;;;25.40;49.70;;;;;;5074290;28;19979;-58
2023/06/30 02:01:10;;;;;;;;;;;25.30;49.70;;;;;;5073108;28;19920;-58
2023/06/30 02:03:37;;;;;;;;;;;25.30;49.70;;;;;;5073753;28;19928;-58
2023/06/30 02:06:04;;;;;;;;;;;25.30;49.70;;;;;;5073555;28;19920;-58
2023/06/30 02:08:31;;;;;;;;;;;25.30;49.70;;;;;;5073716;28;19963;-58
2023/06/30 02:10:58;;;;;;;;;;;25.30;49.70;;;;;;5073651;28;20357;-58
2023/06/30 02:13:25;;;;;;;;;;;25.30;49.70;;;;;;5072463;28;19924;-58
2023/06/30 02:15:52;;;;;;;;;;;25.30;49.70;;;;;;5072279;28;19920;-58
2023/06/30 02:18:22;;;;;;;;;;;25.30;49.70;;;;;;5073756;28;20010;-58
2023/06/30 02:20:49;;;;;;;;;;;25.30;49.70;;;;;;5072387;28;19925;-58
2023/06/30 02:23:16;;;;;;;;;;;25.30;49.70;;;;;;5072642;28;20413;-58
2023/06/30 02:25:43;;;;;;;;;;;25.30;49.70;;;;;;5072884;28;20376;-58
2023/06/30 02:28:10;;;;;;;;;;;25.30;49.70;;;;;;5073194;28;19928;-59
2023/06/30 02:30:37;;;;;;;;;;;25.30;49.70;;;;;;5073231;28;19921;-58
2023/06/30 02:33:05;;;;;;;;;;;25.30;49.70;;;;;;5073310;28;20343;-58
2023/06/30 02:35:32;;;;;;;;;;;25.30;49.70;;;;;;5055941;28;20368;-58
2023/06/30 02:37:59;;;;;;;;;;;25.30;49.70;;;;;;5053118;28;19924;-58
2023/06/30 02:40:26;;;;;;;;;;;25.30;49.70;;;;;;5052600;28;19959;-58
2023/06/30 02:42:53;;;;;;;;;;;25.30;49.60;;;;;;5052998;28;20315;-58
2023/06/30 02:45:20;;;;;;;;;;;25.30;49.60;;;;;;5052959;28;19967;-58
2023/06/30 02:47:49;;;;;;;;;;;25.30;49.60;;;;;;5053088;28;19962;-59
2023/06/30 02:50:17;;;;;;;;;;;25.30;49.60;;;;;;5052968;28;19967;-58
2023/06/30 02:52:44;;;;;;;;;;;25.30;49.60;;;;;;5032884;28;19921;-58
2023/06/30 02:55:11;;;;;;;;;;;25.30;49.60;;;;;;5032512;28;19922;-58
2023/06/30 02:57:38;;;;;;;;;;;25.30;49.50;;;;;;5051461;28;19920;-58
2023/06/30 03:00:06;;;;;;;;;;;25.30;49.50;;;;;;5053315;28;19978;-58
2023/06/30 03:02:33;;;;;;;;;;;25.30;49.50;;;;;;5053106;28;19927;-58
2023/06/30 03:05:01;;;;;;;;;;;25.30;49.50;;;;;;5052534;28;19920;-58
2023/06/30 03:07:27;;;;;;;;;;;25.30;49.50;;;;;;5052385;28;19974;-58
2023/06/30 03:09:54;;;;;;;;;;;25.30;49.40;;;;;;5052183;28;19925;-57
2023/06/30 03:12:22;;;;;;;;;;;25.30;49.40;;;;;;5068634;28;19924;-58
2023/06/30 03:14:49;;;;;;;;;;;25.30;49.40;;;;;;5072529;28;19924;-58
2023/06/30 03:17:16;;;;;;;;;;;25.30;49.30;;;;;;5072717;28;19970;-58
2023/06/30 03:19:43;;;;;;;;;;;25.30;49.30;;;;;;5072455;28;19967;-58
2023/06/30 03:22:10;;;;;;;;;;;25.40;49.30;;;;;;5072550;28;20057;-58
2023/06/30 03:24:38;;;;;;;;;;;25.40;49.30;;;;;;5072505;28;19924;-58
2023/06/30 03:27:05;;;;;;;;;;;25.40;49.30;;;;;;5072882;28;19924;-58
2023/06/30 03:29:32;;;;;;;;;;;25.40;49.30;;;;;;5073044;28;19920;-58
2023/06/30 03:31:59;;;;;;;;;;;25.40;49.30;;;;;;5072025;28;20015;-58
2023/06/30 03:34:26;;;;;;;;;;;25.40;49.30;;;;;;5072284;28;19920;-58
2023/06/30 03:36:53;;;;;;;;;;;25.40;49.20;;;;;;5072521;28;19920;-58
2023/06/30 03:39:20;;;;;;;;;;;25.40;49.20;;;;;;5071529;28;19920;-58
2023/06/30 03:41:47;;;;;;;;;;;25.40;49.20;;;;;;5071637;28;19982;-58
2023/06/30 03:44:14;;;;;;;;;;;25.40;49.10;;;;;;5072229;28;20365;-59
2023/06/30 03:46:41;;;;;;;;;;;25.40;49.10;;;;;;5072071;28;19955;-58
2023/06/30 03:49:09;;;;;;;;;;;25.40;49.10;;;;;;5072465;28;19927;-58
2023/06/30 03:51:36;;;;;;;;;;;25.40;49.00;;;;;;5072490;28;19925;-58
2023/06/30 03:54:03;;;;;;;;;;;25.40;49.00;;;;;;5072128;28;19920;-59
2023/06/30 03:56:31;;;;;;;;;;;25.40;48.90;;;;;;5072277;28;19920;-58
2023/06/30 03:58:58;;;;;;;;;;;25.40;48.90;;;;;;5071467;28;19920;-58
2023/06/30 04:01:26;;;;;;;;;;;25.40;48.80;;;;;;5071844;28;19963;-58
2023/06/30 04:03:53;;;;;;;;;;;25.50;48.90;;;;;;5058984;28;20427;-58
2023/06/30 04:06:20;;;;;;;;;;;25.50;48.80;;;;;;5051765;28;19920;-58
2023/06/30 04:08:47;;;;;;;;;;;25.50;48.80;;;;;;5050720;28;19925;-58
2023/06/30 04:11:14;;;;;;;;;;;25.50;48.80;;;;;;5054418;28;20509;-58
2023/06/30 04:13:41;;;;;;;;;;;25.50;48.70;;;;;;5056121;28;19928;-58
2023/06/30 04:16:09;;;;;;;;;;;25.50;49.20;;;;;;5051522;28;20349;-58
2023/06/30 04:18:36;;;;;;;;;;;25.60;48.70;;;;;;5054526;28;19924;-58
2023/06/30 04:21:03;;;;;;;;;;;25.60;48.70;;;;;;5055773;28;20296;-58
2023/06/30 04:23:30;;;;;;;;;;;25.60;48.60;;;;;;5055797;28;20291;-58
2023/06/30 04:25:58;;;;;;;;;;;25.60;48.60;;;;;;5054775;28;20288;-58
2023/06/30 04:28:25;;;;;;;;;;;25.50;48.50;;;;;;5050043;28;20376;-58
2023/06/30 04:30:52;;;;;;;;;;;25.60;48.50;;;;;;5055354;28;19924;-58
2023/06/30 04:33:19;;;;;;;;;;;25.70;48.60;;;;;;5055934;28;19975;-59
2023/06/30 04:35:46;;;;;;;;;;;25.60;48.50;;;;;;5054313;28;19999;-58
2023/06/30 04:38:14;;;;;;;;;;;25.60;48.70;;;;;;5053322;28;19921;-58
2023/06/30 04:40:41;;;;;;;;;;;25.50;48.50;;;;;;5055361;28;19927;-58
2023/06/30 04:43:12;;;;;;;;;;;25.40;48.70;;;;;;5054548;28;19964;-58
2023/06/30 04:45:39;;;;;;;;;;;25.30;49.00;;;;;;5035052;28;19921;-58
2023/06/30 04:48:07;;;;;;;;;;;25.10;49.50;;;;;;5050958;28;20372;-58
2023/06/30 04:50:35;;;;;;;;;;;24.80;49.90;;;;;;5054270;28;19954;-58
2023/06/30 04:53:02;;;;;;;;;;;24.50;49.70;;;;;;5055239;28;19979;-58
2023/06/30 04:55:29;;;;;;;;;;;24.20;49.30;;;;;;5052388;28;19924;-58
2023/06/30 04:57:56;;;;;;;;;;;23.80;49.20;;;;;;5053180;28;19921;-58
2023/06/30 05:00:24;;;;;;;;;;;23.50;48.80;;;;;;5052619;28;19936;-60
2023/06/30 05:02:52;;;;;;;;;;;23.10;48.80;;;;;;5051954;28;19927;-57
2023/06/30 05:05:19;;;;;;;;;;;22.70;48.80;;;;;;5047955;28;19921;-58
2023/06/30 05:07:46;;;;;;;;;;;22.40;49.00;;;;;;5053297;28;19947;-59
2023/06/30 05:10:13;;;;;;;;;;;22.00;49.60;;;;;;5051937;28;19920;-60
2023/06/30 05:12:40;;;;;;;;;;;21.70;50.10;;;;;;5053657;28;20792;-62
2023/06/30 05:15:08;;;;;;;;;;;21.40;50.90;;;;;;5053271;28;19928;-60
2023/06/30 05:17:35;;;;;;;;;;;21.20;51.00;;;;;;5054008;28;19924;-60
2023/06/30 05:20:05;;;;;;;;;;;21.00;51.80;;;;;;5053064;28;19921;-60
2023/06/30 05:22:32;;;;;;;;;;;20.80;53.20;;;;;;5048352;28;19921;-60
2023/06/30 05:24:59;;;;;;;;;;;20.70;53.80;;;;;;5049456;28;19925;-60
2023/06/30 05:27:27;;;;;;;;;;;20.60;52.60;;;;;;5048309;28;20035;-59
2023/06/30 05:29:54;;;;;;;;;;;20.60;52.80;;;;;;5050071;28;20361;-60
2023/06/30 05:32:22;;;;;;;;;;;20.50;53.40;;;;;;5046812;28;19920;-60
2023/06/30 05:34:50;;;;;;;;;;;20.30;52.80;;;;;;5051023;28;19969;-59
2023/06/30 05:37:17;;;;;;;;;;;20.20;52.90;;;;;;5044488;28;19925;-59
2023/06/30 05:39:44;;;;;;;;;;;20.20;52.80;;;;;;5047772;28;19956;-59
2023/06/30 05:42:11;;;;;;;;;;;20.10;53.30;;;;;;5042898;28;19960;-60
2023/06/30 05:44:38;;;;;;;;;;;20.00;53.50;;;;;;5045121;28;20292;-59
2023/06/30 05:47:05;;;;;;;;;;;20.00;53.50;;;;;;5046229;28;20022;-60
2023/06/30 05:49:32;;;;;;;;;;;20.00;54.20;;;;;;5048404;28;19924;-61
2023/06/30 05:52:00;;;;;;;;;;;19.90;54.70;;;;;;5044684;28;19924;-61
2023/06/30 05:54:27;;;;;;;;;;;19.80;55.60;;;;;;5042549;28;20019;-61
2023/06/30 05:56:54;;;;;;;;;;;19.80;56.00;;;;;;5049491;28;19924;-60
2023/06/30 05:59:21;;;;;;;;;;;19.80;56.20;;;;;;5047197;28;20319;-61
2023/06/30 06:01:47;;;;;;;;;;;19.90;56.70;;;;;;5047791;28;20395;-59
2023/06/30 06:04:18;;;;;;;;;;;19.90;56.60;;;;;;5048658;28;20392;-59
2023/06/30 06:06:45;;;;;;;;;;;19.90;56.60;;;;;;5049094;28;19964;-61
2023/06/30 06:09:12;;;;;;;;;;;19.90;56.60;;;;;;5046594;28;19997;-61
2023/06/30 06:11:39;;;;;;;;;;;20.00;56.70;;;;;;5039874;28;20031;-61
2023/06/30 06:14:07;;;;;;;;;;;20.00;56.70;;;;;;5043081;28;19925;-60
2023/06/30 06:16:34;;;;;;;;;;;20.00;56.80;;;;;;5044506;28;19963;-59
2023/06/30 06:19:01;;;;;;;;;;;20.00;56.90;;;;;;5048109;28;19968;-59
2023/06/30 06:21:28;;;;;;;;;;;20.00;56.90;;;;;;5041836;28;21186;-58
2023/06/30 06:23:55;;;;;;;;;;;20.10;57.20;;;;;;5044918;28;19935;-59
2023/06/30 06:26:23;;;;;;;;;;;20.10;57.40;;;;;;5046067;28;19929;-59
2023/06/30 06:28:51;;;;;;;;;;;20.10;57.60;;;;;;5045952;28;20126;-58
2023/06/30 06:31:18;;;;;;;;;;;20.10;57.60;;;;;;5043214;28;19925;-58
2023/06/30 06:33:45;;;;;;;;;;;20.20;57.80;;;;;;5047070;28;20000;-58
2023/06/30 06:36:12;;;;;;;;;;;20.10;57.60;;;;;;5043388;28;19936;-58
2023/06/30 06:38:40;;;;;;;;;;;20.10;57.60;;;;;;5043083;28;19932;-59
2023/06/30 06:41:07;;;;;;;;;;;20.20;57.70;;;;;;5047044;28;19936;-58
2023/06/30 06:43:34;;;;;;;;;;;20.20;57.80;;;;;;5073538;28;20288;-59
2023/06/30 06:46:02;;;;;;;;;;;20.20;58.00;;;;;;5042358;28;21038;-59
2023/06/30 06:48:29;;;;;;;;;;;20.20;58.10;;;;;;5040525;28;20352;-58
2023/06/30 06:51:01;;;;;;;;;;;20.20;58.40;;;;;;5041934;28;19933;-59
2023/06/30 06:53:29;;;;;;;;;;;20.10;58.50;;;;;;5046605;28;19921;-58
2023/06/30 06:55:56;;;;;;;;;;;20.10;58.70;;;;;;5043620;28;19971;-59
2023/06/30 06:58:25;;;;;;;;;;;20.10;58.70;;;;;;5041902;28;19974;-59
2023/06/30 07:00:55;;;;;;;;;;;20.10;59.00;;;;;;5043876;28;20297;-58
2023/06/30 07:03:23;;;;;;;;;;;20.20;59.00;;;;;;5040868;28;20327;-58
2023/06/30 07:05:50;;;;;;;;;;;20.10;58.70;;;;;;5041420;28;20443;-57
2023/06/30 07:08:18;;;;;;;;;;;20.20;59.10;;;;;;5041814;28;19930;-56
2023/06/30 07:10:46;;;;;;;;;;;20.20;58.90;;;;;;5044829;28;20391;-57
2023/06/30 07:13:17;;;;;;;;;;;20.20;59.30;;;;;;5036684;28;19932;-54
2023/06/30 07:15:45;;;;;;;;;;;20.20;59.30;;;;;;5038377;28;20292;-55
2023/06/30 07:18:12;;;;;;;;;;;20.20;59.20;;;;;;5043750;28;19943;-54
2023/06/30 07:20:39;;;;;;;;;;;20.30;59.40;;;;;;5041134;28;20265;-57
2023/06/30 07:23:06;;;;;;;;;;;20.30;59.30;;;;;;5037879;28;19931;-49
2023/06/30 07:25:33;;;;;;;;;;;20.30;59.20;;;;;;5042685;28;19935;-54
2023/06/30 07:28:01;;;;;;;;;;;20.40;59.20;;;;;;5043757;28;19928;-50
2023/06/30 07:30:28;;;;;;;;;;;20.40;59.10;;;;;;5045748;28;20281;-56
2023/06/30 07:32:55;;;;;;;;;;;20.40;59.40;;;;;;5045758;28;19929;-54
2023/06/30 07:35:23;;;;;;;;;;;20.40;59.20;;;;;;5049094;28;19921;-56
2023/06/30 07:37:51;;;;;;;;;;;20.50;59.00;;;;;;5050169;28;20019;-56
2023/06/30 07:40:18;;;;;;;;;;;20.50;58.90;;;;;;5044455;28;19945;-58
2023/06/30 07:42:49;;;;;;;;;;;20.50;58.90;;;;;;5044129;28;19932;-57
2023/06/30 07:45:17;;;;;;;;;;;20.50;58.80;;;;;;5043811;28;19968;-55
2023/06/30 07:47:45;;;;;;;;;;;20.60;58.50;;;;;;5044488;28;19975;-58
2023/06/30 07:50:14;;;;;;;;;;;20.60;58.50;;;;;;5043447;28;19924;-55
2023/06/30 07:52:42;;;;;;;;;;;20.60;58.50;;;;;;5042482;28;20031;-57
2023/06/30 07:55:10;;;;;;;;;;;20.60;58.50;;;;;;5047746;28;19940;-58
2023/06/30 07:57:38;;;;;;;;;;;20.60;58.20;;;;;;5045860;28;19929;-58
2023/06/30 08:00:06;;;;;;;;;;;20.60;58.50;;;;;;5044635;28;19924;-57
2023/06/30 08:02:33;;;;;;;;;;;20.60;58.50;;;;;;5043176;28;20380;-57
2023/06/30 08:05:00;;;;;;;;;;;20.60;58.60;;;;;;5045532;28;20032;-58
2023/06/30 08:07:27;;;;;;;;;;;20.60;58.50;;;;;;5047910;28;19928;-56
2023/06/30 08:10:14;;;;;;;;;;;20.50;58.70;;;;;;5046882;28;20513;-56
2023/06/30 08:12:41;;;;;;;;;;;20.60;58.80;;;;;;5048902;28;19929;-54
2023/06/30 08:15:09;;;;;;;;;;;20.60;58.80;;;;;;5045724;28;19970;-54
2023/06/30 08:17:36;;;;;;;;;;;20.60;59.10;;;;;;5045360;28;20058;-58
2023/06/30 08:20:22;;;;;;;;;;;20.60;58.80;;;;;;5046877;28;19982;-54
2023/06/30 08:22:50;;;;;;;;;;;20.60;58.70;;;;;;5046896;28;20311;-56
2023/06/30 08:25:19;;;;;;;;;;;20.70;58.90;;;;;;5046175;28;20087;-58
2023/06/30 08:27:46;;;;;;;;;;;20.70;58.80;;;;;;5075714;28;20673;-59
2023/06/30 08:30:15;;;;;;;;;;;20.70;58.80;;;;;;5048420;28;20262;-58
2023/06/30 08:32:43;;;;;;;;;;;20.80;58.80;;;;;;5045118;28;19925;-58
2023/06/30 08:35:10;;;;;;;;;;;20.80;58.70;;;;;;5045218;28;19924;-57
2023/06/30 08:37:37;;;;;;;;;;;20.80;58.80;;;;;;5051789;28;19921;-53
2023/06/30 08:40:05;;;;;;;;;;;20.90;58.90;;;;;;5047347;28;19925;-54
2023/06/30 08:42:35;;;;;;;;;;;20.90;58.80;;;;;;5050664;28;20007;-51
2023/06/30 08:45:03;;;;;;;;;;;20.90;58.80;;;;;;5047562;28;20008;-57
2023/06/30 08:47:31;;;;;;;;;;;21.00;58.60;;;;;;5049145;28;19932;-56
2023/06/30 08:49:58;;;;;;;;;;;21.00;58.80;;;;;;5044896;28;19928;-55
2023/06/30 08:52:25;;;;;;;;;;;21.00;58.70;;;;;;5043957;28;19982;-56
2023/06/30 08:54:54;;;;;;;;;;;21.10;58.60;;;;;;5044817;28;19929;-55
2023/06/30 08:57:21;;;;;;;;;;;21.10;58.50;;;;;;5047080;28;20308;-57
2023/06/30 08:59:48;;;;;;;;;;;21.10;58.50;;;;;;5047307;28;19925;-55
2023/06/30 09:02:16;;;;;;;;;;;21.10;58.30;;;;;;5047883;28;19924;-58
2023/06/30 09:04:43;;;;;;;;;;;21.10;58.20;;;;;;5046755;28;19924;-55
2023/06/30 09:07:21;;;;;;;;;;;21.10;58.20;;;;;;5051604;28;20020;-56
2023/06/30 09:09:49;;;;;;;;;;;21.20;58.10;;;;;;5042553;28;19987;-54
2023/06/30 09:12:17;;;;;;;;;;;21.20;58.00;;;;;;5047353;28;20000;-56
2023/06/30 09:14:44;;;;;;;;;;;21.30;58.00;;;;;;5045609;28;19982;-57
2023/06/30 09:17:12;;;;;;;;;;;21.20;57.80;;;;;;5046025;28;19920;-58
2023/06/30 09:19:39;;;;;;;;;;;21.20;57.80;;;;;;5043749;28;20319;-58
2023/06/30 09:22:07;;;;;;;;;;;21.20;57.70;;;;;;5041345;28;19929;-58
2023/06/30 09:24:54;;;;;;;;;;;21.30;58.00;;;;;;5043069;28;19928;-57
2023/06/30 09:27:21;;;;;;;;;;;21.20;57.70;;;;;;5049298;28;19972;-55
2023/06/30 09:29:52;;;;;;;;;;;21.20;57.90;;;;;;5046392;28;19974;-55
2023/06/30 09:32:30;;;;;;;;;;;21.20;57.80;;;;;;5048061;28;19966;-52
2023/06/30 09:35:04;;;;;;;;;;;21.20;57.70;;;;;;5049298;28;19943;-55
2023/06/30 09:37:41;;;;;;;;;;;21.20;58.00;;;;;;5045476;28;19951;-56
2023/06/30 09:40:13;;;;;;;;;;;21.20;57.90;;;;;;5048020;28;19924;-56
2023/06/30 09:42:41;;;;;;;;;;;21.30;58.10;;;;;;5048665;28;20879;-52
2023/06/30 09:45:08;;;;;;;;;;;21.30;57.90;;;;;;5048855;28;19932;-56
2023/06/30 09:47:36;;;;;;;;;;;21.30;57.70;;;;;;5048647;28;19963;-51
2023/06/30 09:50:06;;;;;;;;;;;21.30;58.00;;;;;;5048078;28;19999;-57
2023/06/30 09:52:34;;;;;;;;;;;21.40;58.20;;;;;;5046731;28;20341;-56
2023/06/30 09:55:10;;;;;;;;;;;21.40;57.80;;;;;;5044463;28;20381;-59
2023/06/30 09:57:41;;;;;;;;;;;21.40;57.70;;;;;;5053269;28;20024;-54
2023/06/30 10:00:08;;;;;;;;;;;21.40;57.40;;;;;;5050593;28;19986;-59
2023/06/30 10:03:02;;;;;;;;;;;21.40;57.30;;;;;;5048141;28;20325;-56
2023/06/30 10:05:29;;;;;;;;;;;21.30;57.00;;;;;;5043302;28;19928;-56
2023/06/30 10:08:01;;;;;;;;;;;21.30;56.70;;;;;;5043493;28;19932;-57
2023/06/30 10:10:29;;;;;;;;;;;21.30;56.50;;;;;;5040912;28;19961;-56
2023/06/30 10:12:58;;;;;;;;;;;21.30;56.40;;;;;;5037360;28;19929;-54
2023/06/30 10:15:26;;;;;;;;;;;21.20;56.50;;;;;;5045163;28;20381;-56
2023/06/30 10:17:54;;;;;;;;;;;21.20;56.40;;;;;;5043017;28;21653;-56
2023/06/30 10:20:22;;;;;;;;;;;21.10;56.40;;;;;;5037970;28;19929;-55
2023/06/30 10:23:04;;;;;;;;;;;21.10;56.40;;;;;;5041973;28;19944;-57
2023/06/30 10:25:34;;;;;;;;;;;21.00;56.40;;;;;;5047257;28;20345;-54
2023/06/30 10:28:02;;;;;;;;;;;21.00;56.30;;;;;;5041239;28;20392;-57
2023/06/30 10:30:29;;;;;;;;;;;20.90;56.10;;;;;;5050999;28;19921;-58
2023/06/30 10:32:56;;;;;;;;;;;20.90;56.10;;;;;;5045261;28;19920;-56
2023/06/30 10:35:24;;;;;;;;;;;20.90;55.90;;;;;;5045724;28;19928;-56
2023/06/30 10:37:52;;;;;;;;;;;20.80;55.80;;;;;;5044852;28;19932;-56
2023/06/30 10:40:24;;;;;;;;;;;20.80;55.90;;;;;;5047124;28;19951;-56
2023/06/30 10:42:53;;;;;;;;;;;20.70;55.70;;;;;;5050196;28;20440;-57
2023/06/30 10:45:20;;;;;;;;;;;20.70;56.00;;;;;;5046634;28;19966;-58
2023/06/30 10:47:51;;;;;;;;;;;20.60;56.20;;;;;;5045159;28;19921;-56
2023/06/30 10:50:18;;;;;;;;;;;20.60;56.30;;;;;;5043679;28;19924;-55
2023/06/30 10:52:49;;;;;;;;;;;20.50;56.20;;;;;;5043193;28;19920;-58
2023/06/30 10:55:18;;;;;;;;;;;20.50;56.30;;;;;;5045232;28;19924;-55
2023/06/30 10:57:49;;;;;;;;;;;20.40;56.50;;;;;;5043394;28;19929;-58
2023/06/30 11:00:17;;;;;;;;;;;20.40;56.70;;;;;;5048946;28;19924;-57
2023/06/30 11:02:49;;;;;;;;;;;20.30;56.50;;;;;;5046864;28;20372;-57
2023/06/30 11:05:21;;;;;;;;;;;20.30;56.80;;;;;;5043888;28;19932;-57
2023/06/30 11:07:52;;;;;;;;;;;20.20;57.00;;;;;;5043858;28;20443;-58
2023/06/30 11:10:27;;;;;;;;;;;20.30;56.90;;;;;;5046112;28;20023;-56
2023/06/30 11:12:56;;;;;;;;;;;20.30;57.00;;;;;;5045400;28;20373;-58
2023/06/30 11:15:27;;;;;;;;;;;20.30;57.10;;;;;;5048097;28;20002;-61
2023/06/30 11:17:58;;;;;;;;;;;20.30;57.10;;;;;;5046209;28;19986;-57
2023/06/30 11:20:26;;;;;;;;;;;20.30;57.40;;;;;;5044743;28;20369;-56
2023/06/30 11:22:55;;;;;;;;;;;20.30;57.20;;;;;;5046066;28;20391;-55
2023/06/30 11:25:22;;;;;;;;;;;20.30;57.30;;;;;;5047655;28;21126;-54
2023/06/30 11:27:49;;;;;;;;;;;20.30;57.20;;;;;;5049640;28;19925;-54
2023/06/30 11:30:18;;;;;;;;;;;20.30;57.30;;;;;;5054492;28;19921;-56
2023/06/30 11:32:46;;;;;;;;;;;20.30;57.10;;;;;;5052007;28;20636;-53
2023/06/30 11:35:13;;;;;;;;;;;20.30;56.90;;;;;;5048668;28;20389;-56
2023/06/30 11:37:46;;;;;;;;;;;20.30;56.90;;;;;;5050630;28;19982;-54
2023/06/30 11:40:13;;;;;;;;;;;20.30;57.40;;;;;;5050996;28;19933;-56
2023/06/30 11:42:40;;;;;;;;;;;20.40;57.70;;;;;;5050149;28;20434;-55
2023/06/30 11:45:07;;;;;;;;;;;20.40;57.10;;;;;;5045616;28;19936;-57
2023/06/30 11:47:35;;;;;;;;;;;20.30;56.80;;;;;;5049314;28;20441;-53
2023/06/30 11:50:07;;;;;;;;;;;20.40;57.20;;;;;;5052748;28;19924;-55
2023/06/30 11:52:34;;;;;;;;;;;20.40;56.60;;;;;;5055698;28;19974;-56
2023/06/30 11:55:06;;;;;;;;;;;20.50;56.90;;;;;;5053521;28;19967;-56
2023/06/30 11:57:34;;;;;;;;;;;20.50;56.70;;;;;;5045044;28;19982;-56
2023/06/30 12:00:09;;;;;;;;;;;20.40;56.90;;;;;;5052319;28;19975;-57
2023/06/30 12:02:36;;;;;;;;;;;20.50;56.70;;;;;;5049370;28;19929;-59
2023/06/30 12:05:10;;;;;;;;;;;20.50;56.90;;;;;;5045076;28;20380;-55
2023/06/30 12:07:37;;;;;;;;;;;20.50;56.60;;;;;;5049614;28;20047;-58
2023/06/30 12:10:05;;;;;;;;;;;20.50;56.50;;;;;;5053472;28;19942;-59
2023/06/30 12:12:32;;;;;;;;;;;20.50;56.60;;;;;;5053888;28;20277;-58
2023/06/30 12:15:02;;;;;;;;;;;20.50;56.60;;;;;;5046414;28;19979;-58
2023/06/30 12:17:29;;;;;;;;;;;20.50;56.50;;;;;;5054883;28;19932;-56
2023/06/30 12:19:56;;;;;;;;;;;20.50;56.40;;;;;;5037668;28;19964;-57
2023/06/30 12:22:25;;;;;;;;;;;20.50;56.80;;;;;;5053982;28;19974;-55
2023/06/30 12:24:57;;;;;;;;;;;20.50;56.70;;;;;;5053929;28;19925;-57
2023/06/30 12:27:27;;;;;;;;;;;20.50;56.50;;;;;;5054400;28;20019;-57
2023/06/30 12:29:55;;;;;;;;;;;20.50;56.50;;;;;;5054194;28;19921;-57
2023/06/30 12:32:25;;;;;;;;;;;20.40;56.70;;;;;;5052614;28;19921;-57
2023/06/30 12:34:57;;;;;;;;;;;20.40;56.70;;;;;;5052670;28;19924;-57
2023/06/30 12:37:28;;;;;;;;;;;20.50;56.80;;;;;;5050576;28;19982;-56
2023/06/30 12:39:58;;;;;;;;;;;20.50;56.80;;;;;;5050083;28;19986;-56
2023/06/30 12:42:29;;;;;;;;;;;20.50;56.90;;;;;;5051393;28;19967;-55
2023/06/30 12:44:56;;;;;;;;;;;20.50;56.90;;;;;;5049802;28;19925;-57
2023/06/30 12:47:23;;;;;;;;;;;20.50;56.80;;;;;;5054692;28;20547;-57
2023/06/30 12:49:50;;;;;;;;;;;20.60;56.90;;;;;;5054475;28;20012;-56
2023/06/30 12:52:18;;;;;;;;;;;20.60;56.90;;;;;;5043355;28;19920;-56
2023/06/30 12:54:45;;;;;;;;;;;20.60;56.90;;;;;;5055159;28;19921;-56
2023/06/30 12:57:13;;;;;;;;;;;20.60;56.60;;;;;;5046269;28;19924;-56
2023/06/30 12:59:42;;;;;;;;;;;20.60;56.80;;;;;;5034711;28;19921;-52
2023/06/30 13:02:09;;;;;;;;;;;20.60;56.80;;;;;;5052843;28;19956;-56
2023/06/30 13:04:37;;;;;;;;;;;20.70;56.80;;;;;;5052203;28;20008;-52
2023/06/30 13:07:04;;;;;;;;;;;20.70;56.90;;;;;;5050251;28;19921;-57
2023/06/30 13:09:31;;;;;;;;;;;20.70;57.00;;;;;;5053147;28;19928;-53
2023/06/30 13:11:58;;;;;;;;;;;20.60;57.10;;;;;;5053536;28;19921;-58
2023/06/30 13:14:25;;;;;;;;;;;20.70;57.10;;;;;;5054301;28;19951;-56
2023/06/30 13:16:52;;;;;;;;;;;20.70;57.20;;;;;;5053782;28;19924;-58
2023/06/30 13:19:21;;;;;;;;;;;20.70;57.30;;;;;;5055164;28;20262;-56
2023/06/30 13:21:49;;;;;;;;;;;20.70;57.10;;;;;;5054654;28;20288;-56
2023/06/30 13:24:19;;;;;;;;;;;20.70;57.80;;;;;;5054562;28;20393;-56
2023/06/30 13:26:47;;;;;;;;;;;20.80;58.00;;;;;;5054471;28;19925;-56
2023/06/30 13:29:14;;;;;;;;;;;20.80;57.50;;;;;;5054922;28;19959;-58
2023/06/30 13:31:41;;;;;;;;;;;20.90;57.50;;;;;;5085268;28;20011;-57
2023/06/30 13:34:09;;;;;;;;;;;20.90;57.20;;;;;;5052960;28;20019;-57
2023/06/30 13:36:39;;;;;;;;;;;21.00;56.90;;;;;;5054158;28;19956;-56
2023/06/30 13:39:06;;;;;;;;;;;20.90;56.70;;;;;;5053510;28;19921;-57
2023/06/30 13:41:32;;;;;;;;;;;20.90;56.60;;;;;;5052228;28;19920;-55
2023/06/30 13:43:59;;;;;;;;;;;20.90;56.50;;;;;;5054234;28;19971;-58
2023/06/30 13:46:26;;;;;;;;;;;21.00;56.40;;;;;;5054113;28;19951;-57
2023/06/30 13:48:53;;;;;;;;;;;21.00;56.20;;;;;;5054184;28;19927;-58
2023/06/30 13:51:21;;;;;;;;;;;21.00;56.00;;;;;;5054007;28;20311;-57
2023/06/30 13:53:48;;;;;;;;;;;20.90;56.10;;;;;;5053776;28;19974;-57
2023/06/30 13:56:15;;;;;;;;;;;20.90;55.90;;;;;;5054082;28;19967;-57
2023/06/30 13:58:42;;;;;;;;;;;20.90;56.30;;;;;;5053941;28;19920;-57
2023/06/30 14:01:09;;;;;;;;;;;20.90;56.10;;;;;;5054042;28;19925;-57
2023/06/30 14:03:37;;;;;;;;;;;20.90;57.00;;;;;;5053703;28;20377;-56
2023/06/30 14:06:04;;;;;;;;;;;20.90;61.90;;;;;;5053797;28;19928;-56
2023/06/30 14:08:33;;;;;;;;;;;21.20;64.30;;;;;;5053859;28;19920;-58
2023/06/30 14:11:01;;;;;;;;;;;21.50;64.60;;;;;;5086372;28;19927;-55
2023/06/30 14:13:28;;;;;;;;;;;21.70;64.40;;;;;;5053082;28;19921;-57
2023/06/30 14:15:55;;;;;;;;;;;22.00;64.70;;;;;;5054246;28;20016;-59
2023/06/30 14:18:22;;;;;;;;;;;22.30;64.30;;;;;;5053744;28;19924;-59
2023/06/30 14:20:49;;;;;;;;;;;22.60;63.90;;;;;;5053967;28;19967;-59